| time (UTC) | temp C | wind direction | speed KPH | gust KPH | rain 1hr cm | rain 24hr cm | rain mn cm | humidity % | barometer mb |
| 20260507085412 | 11 | 36 | 0.0 | 0.0 | 0.00 | 0.20 | 0.20 | 88 | 1012.9 |
| 20260507084909 | 11 | 36 | 0.0 | 0.0 | 0.00 | 0.20 | 0.20 | 87 | 1012.6 |
| 20260507084406 | 11 | 36 | 0.0 | 0.0 | 0.00 | 0.20 | 0.20 | 87 | 1012.6 |
| 20260507083903 | 11 | 36 | 0.0 | 0.0 | 0.00 | 0.20 | 0.20 | 87 | 1012.9 |
| 20260507083359 | 11 | 36 | 0.0 | 0.0 | 0.00 | 0.20 | 0.20 | 87 | 1012.9 |
| 20260507082855 | 11 | 36 | 0.0 | 0.0 | 0.00 | 0.20 | 0.20 | 87 | 1012.6 |
| 20260507082351 | 11 | 36 | 0.0 | 1.6 | 0.00 | 0.20 | 0.20 | 86 | 1012.6 |
| 20260507081849 | 11 | 36 | 0.0 | 1.6 | 0.00 | 0.20 | 0.20 | 86 | 1012.6 |
| 20260507081344 | 11 | 36 | 0.0 | 8.0 | 0.00 | 0.20 | 0.20 | 85 | 1012.6 |
| 20260507080842 | 11 | 36 | 1.6 | 8.0 | 0.00 | 0.20 | 0.20 | 85 | 1012.6 |
| 20260507080337 | 12 | 0 | 1.6 | 8.0 | 0.00 | 0.20 | 0.20 | 85 | 1012.6 |
| 20260507075833 | 12 | 349 | 1.6 | 8.0 | 0.00 | 0.20 | 0.20 | 85 | 1012.2 |
| 20260507075329 | 12 | 331 | 3.2 | 8.0 | 0.00 | 0.20 | 0.20 | 85 | 1012.2 |
| 20260507074826 | 12 | 0 | 3.2 | 8.0 | 0.00 | 0.20 | 0.20 | 84 | 1012.2 |
| 20260507074323 | 12 | 46 | 3.2 | 8.0 | 0.00 | 0.20 | 0.20 | 85 | 1012.2 |
| 20260507073820 | 12 | 320 | 3.2 | 8.0 | 0.00 | 0.20 | 0.20 | 85 | 1011.9 |
| 20260507073317 | 12 | 49 | 1.6 | 9.7 | 0.00 | 0.20 | 0.20 | 86 | 1012.2 |
| 20260507072814 | 12 | 0 | 3.2 | 14.5 | 0.00 | 0.20 | 0.20 | 86 | 1012.2 |
| 20260507072312 | 12 | 0 | 4.8 | 14.5 | 0.00 | 0.20 | 0.20 | 86 | 1011.9 |
| 20260507071809 | 12 | 348 | 4.8 | 17.7 | 0.00 | 0.20 | 0.20 | 86 | 1011.9 |
| 20260507071305 | 12 | 329 | 6.4 | 17.7 | 0.00 | 0.20 | 0.20 | 85 | 1011.9 |
| 20260507070802 | 12 | 338 | 4.8 | 14.5 | 0.00 | 0.20 | 0.20 | 86 | 1011.9 |
| 20260507070259 | 12 | 351 | 4.8 | 14.5 | 0.00 | 0.20 | 0.20 | 86 | 1011.9 |
| 20260507065756 | 12 | 348 | 4.8 | 12.9 | 0.00 | 0.20 | 0.20 | 86 | 1012.2 |
| 20260507065253 | 12 | 335 | 3.2 | 12.9 | 0.00 | 0.20 | 0.20 | 87 | 1012.2 |
| 20260507064750 | 12 | 349 | 1.6 | 12.9 | 0.00 | 0.20 | 0.20 | 87 | 1012.6 |
| 20260507064249 | 12 | 345 | 1.6 | 12.9 | 0.00 | 0.20 | 0.20 | 87 | 1012.2 |
| 20260507063746 | 13 | 344 | 3.2 | 12.9 | 0.00 | 0.20 | 0.20 | 87 | 1012.2 |
| 20260507063243 | 13 | 21 | 4.8 | 12.9 | 0.00 | 0.20 | 0.20 | 87 | 1011.5 |
| 20260507062740 | 13 | 313 | 4.8 | 12.9 | 0.03 | 0.20 | 0.20 | 88 | 1011.9 |
| 20260507062237 | 13 | 343 | 3.2 | 8.0 | 0.03 | 0.20 | 0.20 | 88 | 1011.9 |
| 20260507061735 | 13 | 350 | 1.6 | 6.4 | 0.05 | 0.20 | 0.20 | 88 | 1011.9 |
| 20260507061232 | 13 | 351 | 1.6 | 6.4 | 0.08 | 0.20 | 0.20 | 88 | 1011.9 |
| 20260507060730 | 13 | 336 | 1.6 | 8.0 | 0.13 | 0.20 | 0.20 | 88 | 1012.2 |
| 20260507060227 | 13 | 340 | 1.6 | 8.0 | 0.18 | 0.20 | 0.20 | 88 | 1011.9 |
| 20260507055723 | 13 | 350 | 1.6 | 8.0 | 0.20 | 0.20 | 0.20 | 88 | 1011.9 |
| 20260507055219 | 13 | 19 | 0.0 | 8.0 | 0.20 | 0.20 | 0.20 | 88 | 1012.6 |
| 20260507054715 | 13 | 346 | 0.0 | 6.4 | 0.20 | 0.20 | 0.20 | 88 | 1012.2 |
| 20260507054212 | 14 | 346 | 1.6 | 6.4 | 0.20 | 0.20 | 0.20 | 87 | 1011.9 |
| 20260507053709 | 14 | 347 | 1.6 | 6.4 | 0.20 | 0.20 | 0.20 | 87 | 1012.2 |
| 20260507053207 | 14 | 342 | 0.0 | 4.8 | 0.20 | 0.20 | 0.20 | 86 | 1012.2 |
| 20260507052706 | 14 | 28 | 0.0 | 4.8 | 0.18 | 0.18 | 0.18 | 86 | 1012.6 |
| 20260507052201 | 15 | 28 | 0.0 | 4.8 | 0.18 | 0.18 | 0.18 | 86 | 1012.6 |
| 20260507051700 | 15 | 29 | 1.6 | 4.8 | 0.15 | 0.18 | 0.18 | 85 | 1012.2 |
| 20260507051156 | 15 | 5 | 1.6 | 14.5 | 0.13 | 0.13 | 0.13 | 85 | 1012.6 |
| 20260507050653 | 15 | 5 | 3.2 | 14.5 | 0.08 | 0.10 | 0.10 | 84 | 1012.2 |
| 20260507050149 | 15 | 5 | 4.8 | 14.5 | 0.03 | 0.03 | 0.03 | 82 | 1012.6 |
| 20260507045646 | 15 | 355 | 4.8 | 14.5 | 0.00 | 0.00 | 0.00 | 81 | 1012.6 |
| 20260507045143 | 15 | 327 | 3.2 | 12.9 | 0.00 | 0.00 | 0.00 | 80 | 1012.2 |
| 20260507044640 | 16 | 346 | 3.2 | 9.7 | 0.00 | 0.00 | 0.00 | 79 | 1012.2 |
| 20260507044137 | 16 | 41 | 4.8 | 17.7 | 0.00 | 0.00 | 0.00 | 78 | 1011.9 |
| 20260507043633 | 16 | 0 | 6.4 | 17.7 | 0.00 | 0.00 | 0.00 | 78 | 1012.2 |
| 20260507043130 | 16 | 350 | 8.0 | 17.7 | 0.00 | 0.00 | 0.00 | 78 | 1011.9 |
| 20260507042626 | 16 | 355 | 8.0 | 17.7 | 0.00 | 0.00 | 0.00 | 77 | 1012.2 |
| 20260507042121 | 16 | 333 | 4.8 | 17.7 | 0.00 | 0.00 | 0.00 | 77 | 1011.9 |
| 20260507041618 | 17 | 330 | 4.8 | 16.1 | 0.00 | 0.00 | 0.00 | 76 | 1011.9 |
| 20260507041115 | 17 | 0 | 4.8 | 16.1 | 0.00 | 0.00 | 0.00 | 76 | 1011.9 |
| 20260507040612 | 17 | 355 | 3.2 | 16.1 | 0.00 | 0.00 | 0.00 | 76 | 1011.5 |
| 20260507040108 | 17 | 346 | 3.2 | 11.3 | 0.00 | 0.00 | 0.00 | 76 | 1011.5 |
| 20260507035604 | 17 | 15 | 3.2 | 9.7 | 0.00 | 0.38 | 0.38 | 76 | 1011.2 |
| 20260507035100 | 17 | 346 | 3.2 | 8.0 | 0.00 | 0.38 | 0.38 | 76 | 1011.2 |
| 20260507034557 | 17 | 346 | 1.6 | 12.9 | 0.00 | 0.38 | 0.38 | 75 | 1010.9 |
| 20260507034055 | 17 | 30 | 1.6 | 12.9 | 0.00 | 0.38 | 0.38 | 75 | 1011.2 |
| 20260507033553 | 17 | 341 | 3.2 | 12.9 | 0.00 | 0.38 | 0.38 | 75 | 1011.5 |
| 20260507033050 | 17 | 350 | 3.2 | 12.9 | 0.00 | 0.38 | 0.38 | 75 | 1011.5 |
| 20260507032547 | 17 | 336 | 4.8 | 12.9 | 0.00 | 0.38 | 0.38 | 75 | 1011.5 |
| 20260507032043 | 17 | 355 | 3.2 | 12.9 | 0.00 | 0.38 | 0.38 | 74 | 1011.5 |
| 20260507031540 | 17 | 10 | 0.0 | 4.8 | 0.00 | 0.38 | 0.38 | 75 | 1011.5 |
| 20260507031037 | 17 | 161 | 0.0 | 8.0 | 0.00 | 0.38 | 0.38 | 74 | 1011.5 |
| 20260507030534 | 17 | 161 | 1.6 | 8.0 | 0.00 | 0.38 | 0.38 | 74 | 1011.5 |
| 20260507030032 | 17 | 18 | 1.6 | 8.0 | 0.00 | 0.38 | 0.38 | 74 | 1011.2 |
| 20260507025528 | 18 | 344 | 3.2 | 8.0 | 0.00 | 0.38 | 0.38 | 74 | 1010.9 |
| 20260507025026 | 18 | 23 | 1.6 | 8.0 | 0.00 | 0.38 | 0.38 | 74 | 1010.9 |
| 20260507024524 | 18 | 49 | 1.6 | 12.9 | 0.00 | 0.38 | 0.38 | 75 | 1011.2 |
| 20260507024020 | 18 | 0 | 1.6 | 12.9 | 0.00 | 0.38 | 0.38 | 75 | 1010.9 |
| 20260507023516 | 18 | 21 | 4.8 | 17.7 | 0.00 | 0.38 | 0.38 | 75 | 1010.9 |
| 20260507023014 | 18 | 355 | 6.4 | 17.7 | 0.00 | 0.38 | 0.38 | 75 | 1010.9 |
| 20260507022510 | 18 | 355 | 6.4 | 16.1 | 0.00 | 0.38 | 0.38 | 75 | 1010.5 |
| 20260507022006 | 18 | 343 | 6.4 | 16.1 | 0.00 | 0.38 | 0.38 | 75 | 1010.9 |
| 20260507021502 | 19 | 5 | 6.4 | 16.1 | 0.00 | 0.38 | 0.38 | 77 | 1010.9 |
| 20260507020959 | 19 | 15 | 3.2 | 16.1 | 0.00 | 0.38 | 0.38 | 77 | 1010.9 |
| 20260507020456 | 19 | 355 | 1.6 | 12.9 | 0.00 | 0.38 | 0.38 | 78 | 1010.9 |
| 20260507015953 | 19 | 158 | 1.6 | 12.9 | 0.00 | 0.38 | 0.38 | 78 | 1010.9 |
| 20260507015451 | 20 | 55 | 1.6 | 12.9 | 0.00 | 0.38 | 0.38 | 78 | 1010.5 |
| 20260507014948 | 20 | 355 | 1.6 | 12.9 | 0.00 | 0.38 | 0.38 | 78 | 1010.2 |
| 20260507014444 | 20 | 22 | 1.6 | 8.0 | 0.00 | 0.38 | 0.38 | 78 | 1010.9 |
| 20260507013940 | 20 | 5 | 1.6 | 8.0 | 0.00 | 0.38 | 0.38 | 78 | 1010.9 |
| 20260507013437 | 20 | 69 | 0.0 | 8.0 | 0.00 | 0.38 | 0.38 | 79 | 1010.9 |
| 20260507012935 | 20 | 337 | 0.0 | 4.8 | 0.00 | 0.38 | 0.38 | 80 | 1010.9 |
| 20260507012432 | 20 | 197 | 0.0 | 0.0 | 0.00 | 0.38 | 0.38 | 80 | 1010.5 |
| 20260507011928 | 20 | 198 | 0.0 | 0.0 | 0.00 | 0.38 | 0.38 | 80 | 1010.9 |
| 20260507011426 | 20 | 198 | 0.0 | 0.0 | 0.00 | 0.38 | 0.38 | 80 | 1010.9 |
| 20260507010925 | 20 | 198 | 0.0 | 0.0 | 0.00 | 0.38 | 0.38 | 79 | 1010.9 |
| 20260507010421 | 20 | 198 | 0.0 | 0.0 | 0.00 | 0.38 | 0.38 | 79 | 1010.5 |
| 20260507005918 | 20 | 198 | 0.0 | 0.0 | 0.00 | 0.38 | 0.38 | 79 | 1010.5 |
| 20260507005415 | 20 | 198 | 0.0 | 0.0 | 0.00 | 0.38 | 0.38 | 79 | 1010.5 |
| 20260507004911 | 20 | 198 | 0.0 | 0.0 | 0.00 | 0.38 | 0.38 | 79 | 1010.5 |
| 20260507004408 | 20 | 198 | 0.0 | 0.0 | 0.00 | 0.38 | 0.38 | 79 | 1010.5 |
| 20260507003906 | 20 | 198 | 0.0 | 0.0 | 0.00 | 0.38 | 0.38 | 79 | 1010.2 |
| 20260507003401 | 20 | 198 | 0.0 | 0.0 | 0.00 | 0.38 | 0.38 | 79 | 1010.2 |
| 20260507002856 | 20 | 198 | 0.0 | 0.0 | 0.00 | 0.38 | 0.38 | 79 | 1010.5 |
| 20260507002352 | 20 | 198 | 0.0 | 0.0 | 0.00 | 0.38 | 0.38 | 78 | 1010.5 |
| 20260507001850 | 20 | 198 | 0.0 | 0.0 | 0.00 | 0.38 | 0.38 | 78 | 1010.2 |
| 20260507001346 | 20 | 135 | 0.0 | 0.0 | 0.00 | 0.38 | 0.38 | 78 | 1010.2 |
| 20260507000843 | 20 | 129 | 0.0 | 0.0 | 0.00 | 0.38 | 0.38 | 78 | 1010.2 |
| 20260507000338 | 20 | 129 | 0.0 | 0.0 | 0.00 | 0.38 | 0.38 | 78 | 1010.2 |
| 20260506235835 | 20 | 129 | 0.0 | 0.0 | 0.00 | 0.38 | 0.38 | 78 | 1010.2 |
| 20260506235332 | 20 | 129 | 0.0 | 0.0 | 0.00 | 0.38 | 0.38 | 78 | 1009.9 |
| 20260506234828 | 20 | 129 | 0.0 | 0.0 | 0.00 | 0.38 | 0.38 | 78 | 1009.9 |
| 20260506234326 | 20 | 129 | 0.0 | 0.0 | 0.00 | 0.38 | 0.38 | 77 | 1009.9 |
| 20260506233823 | 20 | 129 | 0.0 | 0.0 | 0.00 | 0.38 | 0.38 | 77 | 1009.9 |
| 20260506233319 | 20 | 129 | 0.0 | 0.0 | 0.00 | 0.38 | 0.38 | 77 | 1009.9 |
| 20260506232817 | 20 | 129 | 0.0 | 0.0 | 0.00 | 0.38 | 0.38 | 77 | 1009.9 |
| 20260506232312 | 20 | 129 | 0.0 | 0.0 | 0.00 | 0.38 | 0.38 | 77 | 1009.5 |
| 20260506231809 | 20 | 128 | 0.0 | 0.0 | 0.00 | 0.38 | 0.38 | 77 | 1009.5 |
| 20260506231307 | 20 | 128 | 0.0 | 1.6 | 0.00 | 0.38 | 0.38 | 76 | 1009.5 |
| 20260506230804 | 20 | 205 | 0.0 | 1.6 | 0.00 | 0.38 | 0.38 | 76 | 1009.9 |
| 20260506230300 | 21 | 159 | 0.0 | 6.4 | 0.00 | 0.38 | 0.38 | 76 | 1009.9 |
| 20260506225756 | 21 | 146 | 0.0 | 6.4 | 0.00 | 0.38 | 0.38 | 76 | 1009.9 |
| 20260506225254 | 21 | 146 | 0.0 | 6.4 | 0.00 | 0.38 | 0.38 | 76 | 1009.9 |
| 20260506224750 | 21 | 146 | 0.0 | 6.4 | 0.00 | 0.38 | 0.38 | 76 | 1009.2 |
| 20260506224248 | 21 | 139 | 0.0 | 6.4 | 0.00 | 0.38 | 0.38 | 76 | 1009.5 |
| 20260506223744 | 21 | 180 | 0.0 | 1.6 | 0.00 | 0.38 | 0.38 | 76 | 1009.2 |
| 20260506223239 | 21 | 180 | 0.0 | 4.8 | 0.00 | 0.38 | 0.38 | 76 | 1009.5 |
| 20260506222737 | 21 | 177 | 0.0 | 4.8 | 0.00 | 0.38 | 0.38 | 76 | 1009.5 |
| 20260506222232 | 21 | 207 | 0.0 | 6.4 | 0.00 | 0.38 | 0.38 | 75 | 1009.9 |
| 20260506221730 | 21 | 170 | 0.0 | 6.4 | 0.00 | 0.38 | 0.38 | 76 | 1009.5 |
| 20260506221228 | 21 | 170 | 0.0 | 6.4 | 0.00 | 0.38 | 0.38 | 75 | 1009.5 |
| 20260506220725 | 21 | 223 | 0.0 | 4.8 | 0.00 | 0.38 | 0.38 | 75 | 1009.5 |
| 20260506220219 | 21 | 223 | 0.0 | 4.8 | 0.00 | 0.38 | 0.38 | 75 | 1009.5 |
| 20260506215716 | 21 | 223 | 0.0 | 4.8 | 0.00 | 0.38 | 0.38 | 75 | 1009.5 |
| 20260506215212 | 21 | 223 | 0.0 | 4.8 | 0.00 | 0.38 | 0.38 | 74 | 1009.5 |
| 20260506214709 | 21 | 223 | 0.0 | 3.2 | 0.00 | 0.38 | 0.38 | 74 | 1009.5 |
| 20260506214206 | 21 | 153 | 0.0 | 1.6 | 0.00 | 0.38 | 0.38 | 74 | 1009.5 |
| 20260506213705 | 21 | 151 | 0.0 | 1.6 | 0.00 | 0.38 | 0.38 | 74 | 1009.2 |
| 20260506213202 | 21 | 148 | 0.0 | 4.8 | 0.00 | 0.38 | 0.38 | 75 | 1009.2 |
| 20260506212659 | 21 | 105 | 0.0 | 4.8 | 0.00 | 0.38 | 0.38 | 74 | 1009.2 |
| 20260506212154 | 21 | 103 | 1.6 | 6.4 | 0.00 | 0.38 | 0.38 | 74 | 1009.2 |
| 20260506211649 | 21 | 279 | 1.6 | 6.4 | 0.00 | 0.38 | 0.38 | 74 | 1009.2 |
| 20260506211146 | 21 | 180 | 1.6 | 6.4 | 0.00 | 0.38 | 0.38 | 75 | 1009.2 |
| 20260506210643 | 21 | 177 | 1.6 | 6.4 | 0.00 | 0.38 | 0.38 | 74 | 1009.2 |
| 20260506210140 | 21 | 178 | 0.0 | 1.6 | 0.00 | 0.38 | 0.38 | 74 | 1008.8 |
| 20260506205637 | 21 | 244 | 0.0 | 0.0 | 0.00 | 0.38 | 0.38 | 74 | 1009.2 |
| 20260506205131 | 21 | 223 | 0.0 | 4.8 | 0.00 | 0.38 | 0.38 | 74 | 1008.8 |
| 20260506204630 | 21 | 158 | 0.0 | 4.8 | 0.00 | 0.38 | 0.38 | 75 | 1008.8 |
| 20260506204126 | 21 | 192 | 1.6 | 6.4 | 0.00 | 0.38 | 0.38 | 74 | 1008.8 |
| 20260506203625 | 21 | 201 | 1.6 | 6.4 | 0.00 | 0.38 | 0.38 | 74 | 1008.8 |
| 20260506203121 | 21 | 198 | 3.2 | 11.3 | 0.00 | 0.38 | 0.38 | 74 | 1009.2 |
| 20260506202619 | 21 | 240 | 3.2 | 11.3 | 0.00 | 0.38 | 0.38 | 73 | 1009.2 |
| 20260506202115 | 21 | 192 | 3.2 | 11.3 | 0.00 | 0.38 | 0.38 | 73 | 1008.8 |
| 20260506201612 | 21 | 236 | 1.6 | 11.3 | 0.00 | 0.38 | 0.38 | 73 | 1008.8 |
| 20260506201109 | 21 | 169 | 1.6 | 6.4 | 0.00 | 0.38 | 0.38 | 73 | 1008.8 |
| 20260506200605 | 21 | 261 | 3.2 | 6.4 | 0.00 | 0.38 | 0.38 | 72 | 1008.8 |
| 20260506195559 | 21 | 246 | 3.2 | 8.0 | 0.00 | 0.38 | 0.38 | 72 | 1008.8 |
| 20260506195055 | 21 | 184 | 1.6 | 8.0 | 0.00 | 0.38 | 0.38 | 73 | 1008.8 |
| 20260506194553 | 21 | 269 | 1.6 | 6.4 | 0.00 | 0.38 | 0.38 | 73 | 1008.8 |
| 20260506194049 | 21 | 227 | 1.6 | 6.4 | 0.00 | 0.38 | 0.38 | 74 | 1008.8 |
| 20260506193547 | 21 | 249 | 1.6 | 6.4 | 0.00 | 0.38 | 0.38 | 74 | 1008.8 |
| 20260506193044 | 21 | 246 | 0.0 | 6.4 | 0.00 | 0.38 | 0.38 | 74 | 1008.8 |
| 20260506192541 | 21 | 206 | 0.0 | 6.4 | 0.00 | 0.38 | 0.38 | 76 | 1008.8 |
| 20260506192036 | 21 | 210 | 1.6 | 8.0 | 0.00 | 0.38 | 0.38 | 74 | 1009.2 |
| 20260506191534 | 21 | 250 | 3.2 | 8.0 | 0.00 | 0.38 | 0.38 | 75 | 1009.2 |
| 20260506191029 | 20 | 274 | 3.2 | 6.4 | 0.00 | 0.38 | 0.38 | 76 | 1009.2 |
| 20260506190527 | 20 | 218 | 3.2 | 6.4 | 0.00 | 0.38 | 0.38 | 76 | 1009.2 |
| 20260506190024 | 20 | 254 | 1.6 | 8.0 | 0.00 | 0.38 | 0.38 | 77 | 1009.5 |
| 20260506185521 | 20 | 179 | 1.6 | 8.0 | 0.00 | 0.38 | 0.38 | 77 | 1009.2 |
| 20260506185017 | 20 | 355 | 0.0 | 9.7 | 0.00 | 0.38 | 0.38 | 78 | 1009.5 |
| 20260506184515 | 20 | 243 | 1.6 | 9.7 | 0.00 | 0.38 | 0.38 | 78 | 1009.5 |
| 20260506184012 | 20 | 195 | 3.2 | 11.3 | 0.00 | 0.38 | 0.38 | 78 | 1009.5 |
| 20260506183507 | 19 | 269 | 3.2 | 11.3 | 0.00 | 0.38 | 0.38 | 79 | 1009.5 |
| 20260506183005 | 19 | 220 | 3.2 | 11.3 | 0.00 | 0.38 | 0.38 | 79 | 1009.5 |
| 20260506182502 | 19 | 178 | 3.2 | 11.3 | 0.00 | 0.38 | 0.38 | 78 | 1009.5 |
| 20260506181959 | 19 | 197 | 3.2 | 9.7 | 0.00 | 0.38 | 0.38 | 80 | 1009.5 |
| 20260506181457 | 19 | 277 | 3.2 | 8.0 | 0.00 | 0.38 | 0.38 | 79 | 1009.9 |
| 20260506180953 | 19 | 184 | 3.2 | 11.3 | 0.00 | 0.38 | 0.38 | 80 | 1009.9 |
| 20260506180450 | 18 | 194 | 4.8 | 11.3 | 0.00 | 0.38 | 0.38 | 80 | 1009.9 |
| 20260506175946 | 18 | 228 | 4.8 | 12.9 | 0.00 | 0.38 | 0.38 | 80 | 1009.9 |
| 20260506175443 | 18 | 250 | 4.8 | 12.9 | 0.00 | 0.38 | 0.38 | 80 | 1009.9 |
| 20260506174940 | 18 | 243 | 4.8 | 12.9 | 0.00 | 0.38 | 0.38 | 81 | 1009.9 |
| 20260506174438 | 18 | 267 | 4.8 | 12.9 | 0.00 | 0.38 | 0.38 | 81 | 1009.9 |
| 20260506173934 | 18 | 174 | 3.2 | 12.9 | 0.00 | 0.38 | 0.38 | 82 | 1009.9 |
| 20260506173431 | 18 | 211 | 3.2 | 8.0 | 0.00 | 0.38 | 0.38 | 84 | 1009.9 |
| 20260506172928 | 18 | 250 | 3.2 | 8.0 | 0.00 | 0.38 | 0.38 | 84 | 1009.9 |
| 20260506172426 | 18 | 237 | 3.2 | 8.0 | 0.00 | 0.38 | 0.38 | 85 | 1009.9 |
| 20260506171922 | 17 | 246 | 3.2 | 11.3 | 0.00 | 0.38 | 0.38 | 84 | 1010.2 |
| 20260506171420 | 17 | 174 | 3.2 | 11.3 | 0.00 | 0.38 | 0.38 | 86 | 1010.2 |
| 20260506170918 | 17 | 256 | 3.2 | 11.3 | 0.00 | 0.38 | 0.38 | 86 | 1010.2 |
| 20260506170414 | 17 | 313 | 3.2 | 11.3 | 0.00 | 0.38 | 0.38 | 87 | 1010.2 |
| 20260506165913 | 17 | 223 | 3.2 | 11.3 | 0.00 | 0.38 | 0.38 | 88 | 1009.9 |
| 20260506165410 | 17 | 223 | 1.6 | 9.7 | 0.00 | 0.38 | 0.38 | 89 | 1010.2 |
| 20260506164901 | 17 | 288 | 1.6 | 6.4 | 0.00 | 0.38 | 0.38 | 89 | 1010.2 |
| 20260506164357 | 17 | 245 | 3.2 | 6.4 | 0.00 | 0.38 | 0.38 | 89 | 1010.2 |
| 20260506163855 | 16 | 237 | 1.6 | 6.4 | 0.00 | 0.38 | 0.38 | 89 | 1010.2 |
| 20260506163349 | 16 | 155 | 1.6 | 9.7 | 0.00 | 0.38 | 0.38 | 90 | 1010.5 |
| 20260506162844 | 16 | 227 | 1.6 | 9.7 | 0.00 | 0.38 | 0.38 | 90 | 1010.2 |
| 20260506162343 | 16 | 211 | 1.6 | 9.7 | 0.00 | 0.38 | 0.38 | 89 | 1010.2 |
| 20260506161840 | 16 | 209 | 3.2 | 9.7 | 0.00 | 0.38 | 0.38 | 90 | 1010.5 |
| 20260506161337 | 16 | 294 | 3.2 | 9.7 | 0.00 | 0.38 | 0.38 | 90 | 1010.5 |
| 20260506160835 | 16 | 191 | 3.2 | 9.7 | 0.00 | 0.38 | 0.38 | 90 | 1010.5 |
| 20260506160331 | 16 | 144 | 3.2 | 9.7 | 0.00 | 0.38 | 0.38 | 90 | 1010.5 |
| 20260506155830 | 16 | 215 | 3.2 | 9.7 | 0.03 | 0.38 | 0.38 | 90 | 1010.5 |
| 20260506155326 | 16 | 205 | 1.6 | 8.0 | 0.03 | 0.38 | 0.38 | 90 | 1010.5 |
| 20260506153439 | 16 | 222 | 1.6 | 12.9 | 0.10 | 0.38 | 0.38 | 90 | 1010.5 |
| 20260506152936 | 16 | 158 | 1.6 | 12.9 | 0.13 | 0.38 | 0.38 | 90 | 1010.5 |
| 20260506152433 | 16 | 152 | 1.6 | 12.9 | 0.13 | 0.38 | 0.38 | 90 | 1010.5 |
| 20260506151931 | 16 | 153 | 1.6 | 4.8 | 0.15 | 0.38 | 0.38 | 91 | 1010.9 |
| 20260506151428 | 16 | 109 | 1.6 | 12.9 | 0.15 | 0.38 | 0.38 | 90 | 1010.9 |
| 20260506150926 | 16 | 215 | 1.6 | 12.9 | 0.18 | 0.38 | 0.38 | 90 | 1011.2 |
| 20260506150421 | 16 | 237 | 1.6 | 8.0 | 0.18 | 0.38 | 0.38 | 90 | 1011.2 |
| 20260506145919 | 16 | 193 | 1.6 | 8.0 | 0.18 | 0.38 | 0.38 | 90 | 1011.2 |
| 20260506145415 | 16 | 257 | 1.6 | 9.7 | 0.20 | 0.36 | 0.36 | 89 | 1011.5 |
| 20260506144913 | 16 | 171 | 1.6 | 12.9 | 0.20 | 0.33 | 0.33 | 89 | 1011.5 |
| 20260506144409 | 16 | 188 | 1.6 | 12.9 | 0.18 | 0.33 | 0.33 | 89 | 1011.2 |
| 20260506143907 | 16 | 188 | 1.6 | 12.9 | 0.20 | 0.30 | 0.30 | 89 | 1011.5 |
| 20260506143404 | 16 | 248 | 1.6 | 12.9 | 0.18 | 0.28 | 0.28 | 89 | 1011.2 |
| 20260506142902 | 16 | 221 | 1.6 | 6.4 | 0.18 | 0.25 | 0.25 | 89 | 1011.2 |
| 20260506142400 | 16 | 223 | 0.0 | 3.2 | 0.18 | 0.25 | 0.25 | 88 | 1011.2 |
| 20260506141858 | 16 | 221 | 1.6 | 8.0 | 0.18 | 0.23 | 0.23 | 88 | 1011.2 |
| 20260506141355 | 16 | 169 | 1.6 | 8.0 | 0.18 | 0.23 | 0.23 | 88 | 1011.2 |
| 20260506140853 | 16 | 254 | 0.0 | 8.0 | 0.18 | 0.20 | 0.20 | 88 | 1011.2 |
| 20260506140350 | 16 | 168 | 0.0 | 8.0 | 0.18 | 0.20 | 0.20 | 88 | 1011.5 |
| 20260506135847 | 16 | 184 | 0.0 | 6.4 | 0.15 | 0.18 | 0.18 | 87 | 1011.2 |
| 20260506135344 | 16 | 154 | 0.0 | 3.2 | 0.13 | 0.15 | 0.15 | 87 | 1011.5 |
| 20260506134840 | 16 | 198 | 0.0 | 4.8 | 0.10 | 0.13 | 0.13 | 87 | 1011.5 |
| 20260506134337 | 16 | 198 | 1.6 | 4.8 | 0.13 | 0.13 | 0.13 | 86 | 1011.5 |
| 20260506133834 | 16 | 202 | 1.6 | 4.8 | 0.10 | 0.10 | 0.10 | 86 | 1011.9 |
| 20260506133330 | 16 | 240 | 1.6 | 4.8 | 0.10 | 0.10 | 0.10 | 86 | 1011.9 |
| 20260506132827 | 17 | 206 | 1.6 | 4.8 | 0.08 | 0.08 | 0.08 | 85 | 1011.9 |
| 20260506132324 | 17 | 174 | 1.6 | 4.8 | 0.08 | 0.08 | 0.08 | 85 | 1011.5 |
| 20260506131822 | 17 | 231 | 1.6 | 4.8 | 0.05 | 0.05 | 0.05 | 84 | 1011.5 |
| 20260506131318 | 17 | 241 | 0.0 | 4.8 | 0.05 | 0.05 | 0.05 | 84 | 1011.5 |
| 20260506130816 | 17 | 241 | 0.0 | 6.4 | 0.03 | 0.03 | 0.03 | 83 | 1011.5 |
| 20260506130312 | 17 | 198 | 0.0 | 6.4 | 0.03 | 0.03 | 0.03 | 83 | 1011.2 |
| 20260506125810 | 17 | 219 | 1.6 | 8.0 | 0.03 | 0.03 | 0.03 | 82 | 1011.2 |
| 20260506125308 | 17 | 171 | 1.6 | 8.0 | 0.03 | 0.03 | 0.03 | 82 | 1011.2 |
| 20260506124807 | 17 | 240 | 1.6 | 8.0 | 0.03 | 0.03 | 0.03 | 81 | 1011.2 |
| 20260506124303 | 17 | 163 | 0.0 | 6.4 | 0.00 | 0.00 | 0.00 | 80 | 1011.2 |
| 20260506123800 | 17 | 212 | 1.6 | 8.0 | 0.00 | 0.00 | 0.00 | 80 | 1011.2 |
| 20260506123259 | 17 | 211 | 1.6 | 8.0 | 0.00 | 0.00 | 0.00 | 80 | 1011.2 |
| 20260506122755 | 17 | 198 | 3.2 | 8.0 | 0.00 | 0.00 | 0.00 | 80 | 1011.5 |
| 20260506122252 | 17 | 249 | 3.2 | 8.0 | 0.00 | 0.00 | 0.00 | 80 | 1011.5 |
| 20260506121751 | 17 | 241 | 3.2 | 8.0 | 0.00 | 0.00 | 0.00 | 80 | 1011.5 |
| 20260506121247 | 17 | 194 | 3.2 | 9.7 | 0.00 | 0.00 | 0.00 | 80 | 1011.5 |
| 20260506120745 | 18 | 184 | 3.2 | 9.7 | 0.00 | 0.00 | 0.00 | 80 | 1011.5 |
| 20260506120242 | 18 | 242 | 3.2 | 9.7 | 0.00 | 0.00 | 0.00 | 79 | 1011.5 |
| 20260506115740 | 18 | 225 | 3.2 | 9.7 | 0.00 | 0.00 | 0.00 | 78 | 1011.5 |
| 20260506115238 | 18 | 200 | 1.6 | 8.0 | 0.00 | 0.00 | 0.00 | 76 | 1011.5 |
| 20260506114736 | 18 | 200 | 1.6 | 8.0 | 0.00 | 0.00 | 0.00 | 75 | 1011.5 |
| 20260506114233 | 18 | 169 | 1.6 | 11.3 | 0.00 | 0.00 | 0.00 | 75 | 1011.5 |
| 20260506113731 | 18 | 233 | 1.6 | 11.3 | 0.00 | 0.00 | 0.00 | 75 | 1011.2 |
| 20260506113228 | 18 | 215 | 1.6 | 11.3 | 0.00 | 0.00 | 0.00 | 75 | 1011.2 |
| 20260506112724 | 19 | 179 | 1.6 | 11.3 | 0.00 | 0.00 | 0.00 | 74 | 1010.9 |
| 20260506112222 | 18 | 204 | 1.6 | 16.1 | 0.00 | 0.00 | 0.00 | 75 | 1010.9 |
| 20260506111720 | 18 | 160 | 3.2 | 16.1 | 0.00 | 0.00 | 0.00 | 75 | 1010.9 |
| 20260506111218 | 18 | 193 | 3.2 | 16.1 | 0.00 | 0.00 | 0.00 | 75 | 1010.9 |
| 20260506110714 | 18 | 190 | 1.6 | 16.1 | 0.00 | 0.00 | 0.00 | 75 | 1010.9 |
| 20260506110212 | 18 | 177 | 1.6 | 4.8 | 0.00 | 0.00 | 0.00 | 75 | 1010.9 |
| 20260506105708 | 18 | 233 | 1.6 | 4.8 | 0.00 | 0.00 | 0.00 | 75 | 1010.9 |
| 20260506105205 | 18 | 192 | 1.6 | 9.7 | 0.00 | 0.00 | 0.00 | 75 | 1010.5 |
| 20260506104703 | 18 | 251 | 3.2 | 9.7 | 0.00 | 0.00 | 0.00 | 74 | 1010.5 |
| 20260506104200 | 18 | 200 | 1.6 | 14.5 | 0.00 | 0.00 | 0.00 | 75 | 1010.5 |
| 20260506103657 | 18 | 181 | 1.6 | 14.5 | 0.00 | 0.00 | 0.00 | 74 | 1010.5 |
| 20260506103154 | 18 | 172 | 1.6 | 11.3 | 0.00 | 0.00 | 0.00 | 74 | 1010.5 |
| 20260506102652 | 18 | 262 | 1.6 | 11.3 | 0.00 | 0.00 | 0.00 | 74 | 1010.5 |
| 20260506102149 | 18 | 211 | 1.6 | 6.4 | 0.00 | 0.00 | 0.00 | 74 | 1010.5 |
| 20260506101646 | 18 | 182 | 1.6 | 8.0 | 0.00 | 0.00 | 0.00 | 74 | 1010.9 |
| 20260506101143 | 18 | 257 | 1.6 | 8.0 | 0.00 | 0.00 | 0.00 | 74 | 1010.5 |
| 20260506100642 | 18 | 14 | 3.2 | 8.0 | 0.00 | 0.00 | 0.00 | 74 | 1010.5 |
| 20260506100139 | 18 | 256 | 3.2 | 8.0 | 0.00 | 0.00 | 0.00 | 74 | 1010.5 |
| 20260506095638 | 18 | 246 | 3.2 | 9.7 | 0.00 | 0.00 | 0.00 | 74 | 1010.5 |
| 20260506095134 | 18 | 200 | 3.2 | 9.7 | 0.00 | 0.00 | 0.00 | 74 | 1010.5 |
| 20260506094632 | 18 | 192 | 3.2 | 9.7 | 0.00 | 0.00 | 0.00 | 74 | 1010.5 |
| 20260506094129 | 18 | 208 | 3.2 | 11.3 | 0.00 | 0.00 | 0.00 | 74 | 1010.9 |
| 20260506093628 | 18 | 202 | 1.6 | 11.3 | 0.00 | 0.00 | 0.00 | 74 | 1010.5 |
| 20260506093124 | 18 | 192 | 1.6 | 6.4 | 0.00 | 0.00 | 0.00 | 74 | 1010.9 |
| 20260506092622 | 18 | 190 | 1.6 | 4.8 | 0.00 | 0.00 | 0.00 | 73 | 1010.5 |
| 20260506092119 | 19 | 238 | 1.6 | 4.8 | 0.00 | 0.00 | 0.00 | 73 | 1010.5 |
| 20260506091617 | 19 | 242 | 1.6 | 6.4 | 0.00 | 0.00 | 0.00 | 73 | 1010.9 |
| 20260506091114 | 19 | 214 | 1.6 | 6.4 | 0.00 | 0.00 | 0.00 | 73 | 1010.5 |
| 20260506090613 | 19 | 184 | 0.0 | 6.4 | 0.00 | 0.00 | 0.00 | 72 | 1010.5 |
| 20260506090108 | 19 | 222 | 1.6 | 9.7 | 0.00 | 0.00 | 0.00 | 72 | 1010.9 |